Ralph Wenz Field
KPNA : now visible

Airfield :











YOU CAN JOIN US ON...

 
LOGIN :

Register | Disclaimer

   EN    FR    IT 

 









Legend :    VFR   Marginal VFR   IFR   Intensive IFR   Very Intensive IFR
Visi :
Ceiling :
>= 8 km
>= 3000ft
5 to 8 km
1000 to 3000 ft
1500m to 5 km
500 to 1000 ft
800 to 1500m
200 to 500 ft
< 800m
< 200 ft
Symbols :   Thunderstorms  Fog  Heavy snow  Heavy precipitations  Wind > 20 kt







- Airport Elevation : 7102 ft


KPNA - Ralph Wenz Field

CURRENT METAR :
  • 210035Z AUTO 17006KT 10SM SCT065 SCT080 10/M04 A2972 RMK AO2

EXPIRED METARs :
  • 210015Z AUTO 13009KT 10SM SCT065 SCT080 10/M05 A2972 RMK AO2
  • 202355Z AUTO 21006KT 10SM SCT065 10/M05 A2973 RMK AO2 LTG DSNT W
  • 202335Z AUTO 09003KT 10SM BKN055 BKN065 10/M05 A2973 RMK AO2 LTG DSNT S
  • 202315Z AUTO 10004KT 10SM SCT065 SCT070 10/M05 A2973 RMK AO2
  • 202255Z AUTO 18004KT 10SM VCTS CLR 10/M04 A2973 RMK AO2
  • 202235Z AUTO 13005KT 10SM SCT050 SCT070 08/M04 A2973 RMK AO2
  • 202215Z AUTO 10005KT 10SM SCT050 SCT070 09/M03 A2973 RMK AO2 LTG DSNT W
  • 202155Z AUTO 16005KT 10SM CLR 08/M03 A2974 RMK AO2 LTG DSNT S

TAF KPNA
Valid from the 21 at 00:00 until the 22 at 00:00 UTC


202321Z 2100/2124 VRB05KT P6SM VCSH SCT040 BKN070
FM210600 30006KT 6SM -SN SCT010 BKN015
FM211700 36006KT P6SM -RASN SCT015 BKN025 AMD LTD TO CLD VIS AND WIND
KZLC FIR / North America



MET'MAP, your aeronautical weather chart ! - Copyright ORBIFLY December 2007 - Disclaimer

ORBIFLY MET'MAP TEAM :

Programming & Development : Alexandra Zaïnal
Concept & Development : Baudouin d'Aumeries
Co-Development & Prog : Marc-Olivier Méhu
Technical & hardware support : Manuel Goepfert

Contact : metmap@orbifly.com




SOURCES & CREDITS :

   NOAA       Earth
Advisory